Terminal Aerodrome Forecast
Issued by NWS

Home | Current Version | Previous Version | Text Only | Print | Product List | Glossary On
Versions: 1 2 3 4 5 6 7 8 9 10 11 12 13 14 15 16 17 18
000
FTUS45 KABQ 281429 AAA
TAFGUP
TAF AMD
KGUP 281429Z 2814/0112 23020G32KT 4SM -SN BR OVC015
     FM281600 25018G26KT 3SM -SN BKN007 OVC015
      TEMPO 2816/2819 1/2SM SN FG VV007
     FM282000 27017G25KT P6SM VCSH BKN040
     FM010100 28009KT P6SM BKN050
     FM010300 26005KT P6SM BKN025=

USA.gov is the U.S. government's official web portal to all federal, state and local government web resources and services.